createdAt,value
2017-05-09T00:01:08.224Z,80.70
2017-05-09T00:03:37.294Z,82.70
2017-05-09T00:06:06.332Z,82.90
2017-05-09T00:08:35.391Z,83.70
2017-05-09T00:11:04.458Z,80.40
2017-05-09T00:13:34.233Z,84.10
2017-05-09T00:16:03.303Z,84.40
2017-05-09T00:18:32.328Z,83.80
2017-05-09T00:21:01.396Z,84.60
2017-05-09T00:23:30.473Z,84.50
2017-05-09T00:26:00.247Z,84.50
2017-05-09T00:28:29.340Z,85.10
2017-05-09T00:30:58.389Z,84.90
2017-05-09T00:33:27.459Z,84.80
2017-05-09T00:35:57.224Z,85.30
2017-05-09T00:38:26.284Z,85.20
2017-05-09T00:40:55.311Z,85.20
2017-05-09T00:43:24.376Z,85.40
2017-05-09T00:45:53.414Z,85.30
2017-05-09T00:48:22.475Z,84.70
2017-05-09T00:50:51.584Z,85.00
2017-05-09T00:53:20.611Z,84.70
2017-05-09T00:55:49.664Z,85.10
2017-05-09T00:58:18.735Z,84.70
2017-05-09T01:00:48.503Z,84.40
2017-05-09T01:03:17.572Z,82.30
2017-05-09T01:05:46.598Z,84.20
2017-05-09T01:08:15.674Z,84.70
2017-05-09T01:10:44.694Z,84.30
2017-05-09T01:13:13.809Z,84.80
2017-05-09T01:15:43.579Z,82.70
2017-05-09T01:18:12.656Z,84.80
2017-05-09T01:20:41.695Z,84.70
2017-05-09T01:23:11.027Z,84.60
2017-05-09T01:25:40.835Z,84.30
2017-05-09T01:28:10.604Z,85.00
2017-05-09T01:30:39.676Z,85.20
2017-05-09T01:33:08.946Z,85.20
2017-05-09T01:35:38.787Z,85.40
2017-05-09T01:38:07.843Z,85.20
2017-05-09T01:40:37.671Z,85.50
2017-05-09T01:43:07.479Z,85.50
2017-05-09T01:45:37.328Z,85.90
2017-05-09T01:48:06.352Z,86.20
2017-05-09T01:50:35.695Z,86.00
2017-05-09T01:53:05.511Z,86.40
2017-05-09T01:55:35.293Z,86.30
2017-05-09T01:58:04.369Z,86.40
2017-05-09T02:00:33.400Z,86.30
2017-05-09T02:03:03.205Z,86.20
2017-05-09T02:05:32.253Z,86.10
2017-05-09T02:08:01.303Z,86.00
2017-05-09T02:10:31.128Z,86.10
2017-05-09T02:13:00.887Z,85.30
2017-05-09T02:15:29.969Z,85.70
2017-05-09T02:17:59.006Z,86.00
2017-05-09T02:20:28.066Z,85.40
2017-05-09T02:22:57.160Z,85.50
2017-05-09T02:25:26.164Z,85.80
2017-05-09T02:27:55.225Z,83.70
2017-05-09T02:30:24.353Z,85.40
2017-05-09T02:32:53.384Z,85.40
2017-05-09T02:35:22.702Z,85.80
2017-05-09T02:37:52.535Z,86.00
2017-05-09T02:40:21.563Z,85.90
2017-05-09T02:42:50.859Z,85.80
2017-05-09T02:45:19.884Z,86.10
2017-05-09T02:47:48.950Z,86.10
2017-05-09T02:50:18.052Z,85.20
2017-05-09T02:52:47.081Z,86.00
2017-05-09T02:55:16.893Z,86.50
2017-05-09T02:57:46.955Z,85.50
2017-05-09T03:00:16.025Z,85.80
2017-05-09T03:02:45.831Z,85.50
2017-05-09T03:05:15.605Z,84.70
2017-05-09T03:07:44.675Z,84.90
2017-05-09T03:10:13.702Z,85.10
2017-05-09T03:12:42.991Z,85.60
2017-05-09T03:15:12.340Z,84.20
2017-05-09T03:17:42.151Z,84.90
2017-05-09T03:20:11.918Z,85.00
2017-05-09T03:22:40.975Z,86.00
2017-05-09T03:25:10.024Z,84.50
2017-05-09T03:27:39.100Z,84.90
2017-05-09T03:30:08.119Z,84.20
2017-05-09T03:32:37.184Z,84.60
2017-05-09T03:35:06.227Z,84.80
2017-05-09T03:37:35.995Z,84.80
2017-05-09T03:40:05.068Z,85.00
2017-05-09T03:42:34.097Z,85.40
2017-05-09T03:45:03.190Z,85.30
2017-05-09T03:47:32.263Z,85.40
2017-05-09T03:50:01.296Z,84.40
2017-05-09T03:52:30.631Z,84.20
2017-05-09T03:55:00.447Z,83.50
2017-05-09T03:57:29.475Z,84.10
2017-05-09T03:59:58.539Z,84.10
2017-05-09T04:02:27.565Z,84.40
2017-05-09T04:04:56.628Z,83.70
2017-05-09T04:07:25.697Z,84.70
2017-05-09T04:09:54.730Z,83.20
2017-05-09T04:12:23.807Z,83.30
2017-05-09T04:14:53.589Z,82.20
2017-05-09T04:17:22.651Z,83.00
2017-05-09T04:19:51.677Z,83.70
2017-05-09T04:22:20.752Z,83.90
2017-05-09T04:24:50.111Z,82.80
2017-05-09T04:27:19.878Z,83.30
2017-05-09T04:29:48.968Z,83.20
2017-05-09T04:32:17.982Z,82.40
2017-05-09T04:34:47.048Z,82.20
2017-05-09T04:37:16.111Z,82.40
2017-05-09T04:39:45.130Z,81.80
2017-05-09T04:42:14.197Z,80.90
2017-05-09T04:44:43.227Z,80.20
2017-05-09T04:47:12.310Z,81.10
2017-05-09T04:49:41.331Z,80.50
2017-05-09T04:52:10.408Z,79.80
2017-05-09T04:54:39.423Z,80.70
2017-05-09T04:57:09.313Z,79.60
2017-05-09T04:59:38.336Z,78.80
2017-05-09T05:02:07.412Z,78.80
2017-05-09T05:04:36.485Z,78.30
2017-05-09T05:07:05.508Z,78.00
2017-05-09T05:09:34.572Z,76.90
2017-05-09T05:12:03.636Z,75.90
2017-05-09T05:14:32.659Z,75.90
2017-05-09T05:17:01.723Z,75.70
2017-05-09T05:19:30.791Z,76.60
2017-05-09T05:21:59.820Z,76.80
2017-05-09T05:24:29.636Z,76.70
2017-05-09T05:26:59.403Z,76.20
2017-05-09T05:29:28.467Z,76.40
2017-05-09T05:31:57.696Z,76.40
2017-05-09T05:34:26.734Z,75.40
2017-05-09T05:36:55.792Z,74.20
2017-05-09T05:39:24.873Z,72.00
2017-05-09T05:41:53.907Z,70.70
2017-05-09T05:44:22.984Z,71.50
2017-05-09T05:46:52.012Z,72.10
2017-05-09T05:49:22.144Z,70.00
2017-05-09T05:51:51.971Z,71.10
2017-05-09T05:54:21.006Z,70.80
2017-05-09T05:56:50.355Z,70.10
2017-05-09T05:59:20.478Z,69.80
2017-05-09T06:01:50.238Z,69.90
2017-05-09T06:04:19.592Z,69.40
2017-05-09T06:06:49.412Z,66.70
2017-05-09T06:09:18.446Z,66.70
2017-05-09T06:11:47.517Z,67.20
2017-05-09T06:14:16.895Z,64.50
2017-05-09T06:16:46.671Z,64.80
2017-05-09T06:19:15.740Z,60.00
2017-05-09T06:21:44.775Z,59.80
2017-05-09T06:24:13.830Z,58.90
2017-05-09T06:26:42.900Z,58.40
2017-05-09T06:29:11.936Z,58.00
2017-05-09T06:31:41.225Z,58.10
2017-05-09T06:34:10.243Z,58.50
2017-05-09T06:36:39.299Z,57.60
2017-05-09T06:39:08.364Z,58.30
2017-05-09T06:41:38.127Z,58.40
2017-05-09T06:44:07.221Z,57.40
2017-05-09T06:46:36.253Z,59.40
2017-05-09T06:49:05.307Z,58.30
2017-05-09T06:51:34.381Z,56.50
2017-05-09T06:54:03.416Z,54.70
2017-05-09T06:56:32.488Z,54.70
2017-05-09T06:59:01.727Z,55.60
2017-05-09T07:01:30.818Z,55.10
2017-05-09T07:03:59.844Z,55.20
2017-05-09T07:06:29.656Z,56.00
2017-05-09T07:08:59.429Z,57.10
2017-05-09T07:11:28.776Z,57.40
2017-05-09T07:13:57.860Z,56.80
2017-05-09T07:16:27.615Z,55.80
2017-05-09T07:18:56.688Z,55.00
2017-05-09T07:21:25.721Z,55.80
2017-05-09T07:23:54.776Z,56.60
2017-05-09T07:26:23.807Z,54.50
2017-05-09T07:28:52.885Z,54.40
2017-05-09T07:31:21.902Z,55.40
2017-05-09T07:33:50.971Z,55.40
2017-05-09T07:36:20.009Z,55.10
2017-05-09T07:38:49.084Z,54.40
2017-05-09T07:41:18.151Z,55.50
2017-05-09T07:43:47.187Z,55.60
2017-05-09T07:46:16.259Z,57.20
2017-05-09T07:48:45.307Z,56.20
2017-05-09T07:51:15.092Z,57.50
2017-05-09T07:53:44.739Z,56.60
2017-05-09T07:56:14.512Z,56.60
2017-05-09T07:58:43.579Z,56.80
2017-05-09T08:01:12.604Z,58.20
2017-05-09T08:03:41.695Z,57.30
2017-05-09T08:06:10.716Z,57.40
2017-05-09T08:08:40.516Z,58.60
2017-05-09T08:11:09.583Z,57.20
2017-05-09T08:13:38.619Z,57.20
2017-05-09T08:16:07.669Z,56.60
2017-05-09T08:18:36.720Z,56.60
2017-05-09T08:21:06.488Z,56.30
2017-05-09T08:23:35.536Z,58.30
2017-05-09T08:26:05.304Z,59.00
2017-05-09T08:28:34.569Z,58.60
2017-05-09T08:31:03.600Z,57.30
2017-05-09T08:33:32.672Z,59.60
2017-05-09T08:36:01.700Z,55.40
2017-05-09T08:38:30.755Z,56.60
2017-05-09T08:40:59.830Z,55.00
2017-05-09T08:43:28.851Z,54.50
2017-05-09T08:45:57.921Z,55.10
2017-05-09T08:48:26.999Z,55.60
2017-05-09T08:50:56.803Z,53.40
2017-05-09T08:53:25.847Z,53.80
2017-05-09T08:55:54.889Z,55.00
2017-05-09T08:58:23.967Z,54.00
2017-05-09T09:00:53.005Z,55.00
2017-05-09T09:03:22.080Z,53.60
2017-05-09T09:05:51.117Z,52.90
2017-05-09T09:08:20.156Z,53.00
2017-05-09T09:10:49.191Z,53.70
2017-05-09T09:13:18.305Z,48.20
2017-05-09T09:15:47.323Z,49.50
2017-05-09T09:18:16.377Z,53.10
2017-05-09T09:20:45.408Z,55.10
2017-05-09T09:23:14.767Z,55.50
2017-05-09T09:25:44.536Z,56.60
2017-05-09T09:28:13.624Z,56.30
2017-05-09T09:30:42.660Z,56.30
2017-05-09T09:33:12.465Z,56.30
2017-05-09T09:35:42.252Z,56.30
2017-05-09T09:38:11.308Z,57.40
2017-05-09T09:40:40.360Z,57.40
2017-05-09T09:43:09.395Z,55.60
2017-05-09T09:45:38.452Z,52.60
2017-05-09T09:48:07.489Z,53.50
2017-05-09T09:50:36.566Z,49.50
2017-05-09T09:53:05.603Z,49.00
2017-05-09T09:55:34.671Z,52.10
2017-05-09T09:58:03.952Z,50.60
2017-05-09T10:00:33.719Z,52.30
2017-05-09T10:03:02.783Z,51.30
2017-05-09T10:05:31.844Z,51.70
2017-05-09T10:08:00.903Z,50.70
2017-05-09T10:10:29.937Z,51.90
2017-05-09T10:12:59.741Z,50.70
2017-05-09T10:15:29.059Z,56.70
2017-05-09T10:17:58.871Z,53.30
2017-05-09T10:20:28.887Z,54.90
2017-05-09T10:22:58.684Z,50.40
2017-05-09T10:25:27.711Z,48.70
2017-05-09T10:27:56.780Z,50.50
2017-05-09T10:30:26.539Z,53.50
2017-05-09T10:32:55.631Z,45.60
2017-05-09T10:35:24.660Z,44.60
2017-05-09T10:37:53.995Z,46.90
2017-05-09T10:40:23.796Z,50.20
2017-05-09T10:42:53.568Z,53.20
2017-05-09T10:45:22.631Z,55.10
2017-05-09T10:47:51.708Z,56.30
2017-05-09T10:50:21.511Z,57.00
2017-05-09T10:52:51.289Z,54.20
2017-05-09T10:55:20.344Z,52.10
2017-05-09T10:57:49.410Z,54.60
2017-05-09T11:00:18.433Z,49.80
2017-05-09T11:02:47.504Z,48.00
2017-05-09T11:05:17.278Z,48.40
2017-05-09T11:07:46.335Z,48.50
2017-05-09T11:10:15.402Z,47.00
2017-05-09T11:12:44.452Z,47.50
2017-05-09T11:15:13.521Z,45.60
2017-05-09T11:17:42.539Z,49.20
2017-05-09T11:20:11.611Z,47.20
2017-05-09T11:22:40.683Z,48.20
2017-05-09T11:25:09.730Z,54.90
2017-05-09T11:27:38.772Z,58.70
2017-05-09T11:30:07.835Z,62.80
2017-05-09T11:32:36.892Z,65.10
2017-05-09T11:35:06.289Z,67.60
2017-05-09T11:37:35.308Z,68.60
2017-05-09T11:40:04.375Z,69.90
2017-05-09T11:42:33.406Z,70.20
2017-05-09T11:45:02.528Z,72.10
2017-05-09T11:47:32.464Z,73.60
2017-05-09T11:50:02.263Z,73.70
2017-05-09T11:52:32.160Z,70.00
2017-05-09T11:55:01.231Z,66.30
2017-05-09T11:57:30.292Z,63.40
2017-05-09T12:00:00.063Z,61.70
2017-05-09T12:02:29.141Z,63.40
2017-05-09T12:04:58.160Z,61.10
2017-05-09T12:07:28.424Z,60.50
2017-05-09T12:09:58.191Z,61.90
2017-05-09T12:12:27.270Z,60.30
2017-05-09T12:14:56.633Z,59.80
2017-05-09T12:17:26.398Z,60.00
2017-05-09T12:19:56.170Z,59.70
2017-05-09T12:22:25.210Z,58.00
2017-05-09T12:24:54.275Z,58.20
2017-05-09T12:27:23.313Z,57.30
2017-05-09T12:29:52.379Z,56.70
2017-05-09T12:32:21.409Z,56.90
2017-05-09T12:34:50.464Z,56.60
2017-05-09T12:37:19.524Z,58.20
2017-05-09T12:39:49.294Z,56.10
2017-05-09T12:42:18.353Z,57.30
2017-05-09T12:44:47.391Z,58.60
2017-05-09T12:47:16.452Z,57.90
2017-05-09T12:49:45.479Z,58.00
2017-05-09T12:52:14.553Z,57.70
2017-05-09T12:54:43.567Z,58.50
2017-05-09T12:57:12.637Z,55.20
2017-05-09T12:59:43.874Z,55.30
2017-05-09T13:02:13.576Z,53.30
2017-05-09T13:04:42.611Z,52.10
2017-05-09T13:07:11.673Z,52.40
2017-05-09T13:09:40.695Z,52.50
2017-05-09T13:12:10.045Z,53.10
2017-05-09T13:14:39.082Z,55.10
2017-05-09T13:17:08.152Z,55.80
2017-05-09T13:19:37.185Z,55.90
2017-05-09T13:22:06.265Z,55.30
2017-05-09T13:24:35.296Z,53.30
2017-05-09T13:27:04.352Z,54.20
2017-05-09T13:29:33.685Z,55.20
2017-05-09T13:32:02.711Z,53.50
2017-05-09T13:34:32.527Z,54.60
2017-05-09T13:37:02.316Z,51.60
2017-05-09T13:39:31.388Z,53.80
2017-05-09T13:42:00.509Z,52.10
2017-05-09T13:44:29.572Z,52.50
2017-05-09T13:46:58.609Z,51.10
2017-05-09T13:49:28.444Z,51.80
2017-05-09T13:51:57.475Z,53.20
2017-05-09T13:54:26.547Z,52.20
2017-05-09T13:56:55.615Z,51.20
2017-05-09T13:59:25.386Z,51.40
2017-05-09T14:01:54.455Z,50.60
2017-05-09T14:04:23.505Z,50.70
2017-05-09T14:06:53.281Z,50.40
2017-05-09T14:09:22.326Z,51.30
2017-05-09T14:11:52.096Z,51.90
2017-05-09T14:14:21.163Z,50.90
2017-05-09T14:16:50.253Z,51.70
2017-05-09T14:19:19.325Z,50.70
2017-05-09T14:21:49.158Z,49.60
2017-05-09T14:24:18.201Z,48.30
2017-05-09T14:26:48.167Z,47.00
2017-05-09T14:29:17.208Z,47.50
2017-05-09T14:31:46.275Z,47.30
2017-05-09T14:34:15.321Z,46.80
2017-05-09T14:36:44.398Z,46.00
2017-05-09T14:39:13.422Z,44.50
2017-05-09T14:41:43.646Z,43.30
2017-05-09T14:44:13.472Z,42.70
2017-05-09T14:46:42.503Z,43.40
2017-05-09T14:49:11.595Z,43.80
2017-05-09T14:51:40.633Z,44.40
2017-05-09T14:54:10.445Z,42.90
2017-05-09T14:56:40.216Z,39.10
2017-05-09T14:59:09.292Z,41.50
2017-05-09T15:01:38.327Z,42.80
2017-05-09T15:04:07.420Z,43.40
2017-05-09T15:06:36.494Z,44.00
2017-05-09T15:09:05.859Z,42.70
2017-05-09T15:11:34.945Z,44.10
2017-05-09T15:14:04.719Z,45.60
2017-05-09T15:16:34.110Z,46.70
2017-05-09T15:19:03.134Z,46.10
2017-05-09T15:21:32.211Z,46.20
2017-05-09T15:24:01.245Z,45.60
2017-05-09T15:26:31.101Z,46.40
2017-05-09T15:29:00.134Z,46.80
2017-05-09T15:31:29.203Z,48.10
2017-05-09T15:33:58.248Z,46.40
2017-05-09T15:36:28.050Z,44.60
2017-05-09T15:38:57.835Z,44.50
2017-05-09T15:41:26.896Z,45.70
2017-05-09T15:43:55.936Z,44.50
2017-05-09T15:46:25.012Z,44.40
2017-05-09T15:48:54.047Z,43.00
2017-05-09T15:51:23.852Z,42.50
2017-05-09T15:53:52.924Z,40.30
2017-05-09T15:56:21.955Z,40.40
2017-05-09T15:58:51.763Z,40.80
2017-05-09T16:01:21.575Z,40.40
2017-05-09T16:03:51.361Z,40.50
2017-05-09T16:06:20.440Z,39.60
2017-05-09T16:08:49.800Z,38.20
2017-05-09T16:11:19.613Z,39.40
2017-05-09T16:13:48.647Z,38.80
2017-05-09T16:16:17.719Z,37.60
2017-05-09T16:18:46.784Z,39.50
2017-05-09T16:21:15.879Z,40.30
2017-05-09T16:23:45.141Z,37.80
2017-05-09T16:26:14.216Z,37.90
2017-05-09T16:28:43.491Z,37.70
2017-05-09T16:31:12.575Z,34.70
2017-05-09T16:33:42.356Z,38.10
2017-05-09T16:36:11.437Z,39.10
2017-05-09T16:38:40.470Z,41.10
2017-05-09T16:41:10.281Z,39.40
2017-05-09T16:43:39.322Z,35.70
2017-05-09T16:46:08.399Z,33.80
2017-05-09T16:48:37.426Z,34.10
2017-05-09T16:51:06.492Z,36.00
2017-05-09T16:53:35.555Z,37.60
2017-05-09T16:56:05.370Z,38.40
2017-05-09T16:58:34.424Z,38.10
2017-05-09T17:01:03.478Z,36.80
2017-05-09T17:03:32.568Z,36.10
2017-05-09T17:06:02.348Z,34.20
2017-05-09T17:08:32.296Z,36.40
2017-05-09T17:11:01.786Z,40.40
2017-05-09T17:13:30.851Z,42.30
2017-05-09T17:15:59.922Z,42.60
2017-05-09T17:18:28.963Z,41.30
2017-05-09T17:20:58.041Z,41.50
2017-05-09T17:23:27.092Z,42.00
2017-05-09T17:25:56.166Z,41.20
2017-05-09T17:28:25.483Z,42.40
2017-05-09T17:30:54.520Z,43.30
2017-05-09T17:33:23.939Z,43.30
2017-05-09T17:35:52.981Z,41.70
2017-05-09T17:38:22.044Z,40.40
2017-05-09T17:40:51.099Z,41.30
2017-05-09T17:43:20.172Z,40.90
2017-05-09T17:45:49.227Z,42.20
2017-05-09T17:48:18.305Z,42.00
2017-05-09T17:50:47.352Z,43.90
2017-05-09T17:53:17.167Z,44.60
2017-05-09T17:55:46.465Z,45.80
2017-05-09T17:58:16.282Z,46.10
2017-05-09T18:00:45.325Z,46.60
2017-05-09T18:03:14.379Z,45.40
2017-05-09T18:05:43.453Z,44.50
2017-05-09T18:08:13.227Z,45.00
2017-05-09T18:10:42.305Z,43.90
2017-05-09T18:13:11.679Z,44.10
2017-05-09T18:15:41.517Z,46.30
2017-05-09T18:18:10.556Z,46.10
2017-05-09T18:20:39.982Z,46.50
2017-05-09T18:23:09.763Z,47.20
2017-05-09T18:25:38.819Z,48.60
2017-05-09T18:28:07.894Z,47.40
2017-05-09T18:30:36.944Z,49.10
2017-05-09T18:33:06.038Z,49.70
2017-05-09T18:35:35.078Z,49.80
2017-05-09T18:38:04.161Z,50.10
2017-05-09T18:40:33.964Z,51.20
2017-05-09T18:43:02.992Z,50.90
2017-05-09T18:45:32.045Z,52.60
2017-05-09T18:48:01.079Z,53.10
2017-05-09T18:50:30.162Z,53.70
2017-05-09T18:52:59.943Z,54.00
2017-05-09T18:55:29.008Z,53.80
2017-05-09T18:57:58.040Z,54.00
2017-05-09T19:00:27.366Z,54.20
2017-05-09T19:02:57.160Z,53.60
2017-05-09T19:05:26.217Z,54.30
2017-05-09T19:07:55.246Z,54.70
2017-05-09T19:10:25.061Z,54.60
2017-05-09T19:12:54.094Z,55.00
2017-05-09T19:15:23.162Z,55.20
2017-05-09T19:17:52.990Z,55.40
2017-05-09T19:20:22.292Z,56.20
2017-05-09T19:22:51.356Z,56.50
2017-05-09T19:25:20.414Z,56.60
2017-05-09T19:27:49.455Z,57.20
2017-05-09T19:30:18.545Z,57.00
2017-05-09T19:32:47.611Z,55.80
2017-05-09T19:35:16.632Z,55.90
2017-05-09T19:37:45.707Z,56.30
2017-05-09T19:40:14.739Z,56.40
2017-05-09T19:42:44.538Z,56.70
2017-05-09T19:45:13.864Z,57.30
2017-05-09T19:47:43.692Z,57.40
2017-05-09T19:50:12.730Z,57.10
2017-05-09T19:52:41.832Z,56.50
2017-05-09T19:55:10.875Z,56.90
2017-05-09T19:57:40.175Z,57.90
2017-05-09T20:00:09.204Z,56.20
2017-05-09T20:02:38.260Z,57.30
2017-05-09T20:05:07.315Z,56.40
2017-05-09T20:07:36.422Z,56.90
2017-05-09T20:10:05.528Z,56.60
2017-05-09T20:12:34.559Z,57.00
2017-05-09T20:15:03.636Z,57.10
2017-05-09T20:17:32.673Z,56.30
2017-05-09T20:20:01.756Z,57.20
2017-05-09T20:22:30.805Z,56.30
2017-05-09T20:24:59.888Z,56.70
2017-05-09T20:27:28.923Z,57.10
2017-05-09T20:29:57.989Z,57.40
2017-05-09T20:32:27.832Z,58.40
2017-05-09T20:34:56.893Z,57.40
2017-05-09T20:37:25.951Z,56.80
2017-05-09T20:39:54.988Z,57.50
2017-05-09T20:42:24.797Z,56.50
2017-05-09T20:44:53.863Z,57.20
2017-05-09T20:47:22.891Z,55.90
2017-05-09T20:49:51.961Z,56.70
2017-05-09T20:52:21.303Z,56.50
2017-05-09T20:54:51.104Z,56.70
2017-05-09T20:57:20.172Z,57.70
2017-05-09T20:59:49.242Z,57.20
2017-05-09T21:02:18.312Z,58.10
2017-05-09T21:04:47.388Z,57.50
2017-05-09T21:07:17.164Z,57.20
2017-05-09T21:09:46.231Z,57.70
2017-05-09T21:12:15.596Z,58.60
2017-05-09T21:14:44.659Z,57.80
2017-05-09T21:17:13.720Z,57.80
2017-05-09T21:19:42.793Z,57.90
2017-05-09T21:22:12.568Z,57.80
2017-05-09T21:24:41.639Z,56.70
2017-05-09T21:27:10.660Z,56.00
2017-05-09T21:29:39.999Z,56.80
2017-05-09T21:32:09.785Z,57.00
2017-05-09T21:34:39.116Z,56.70
2017-05-09T21:37:08.921Z,57.10
2017-05-09T21:39:38.678Z,56.50
2017-05-09T21:42:07.747Z,57.30
2017-05-09T21:44:36.813Z,56.60
2017-05-09T21:47:05.843Z,57.70
2017-05-09T21:49:35.229Z,56.50
2017-05-09T21:52:05.000Z,57.40
2017-05-09T21:54:34.347Z,58.00
2017-05-09T21:57:04.119Z,58.30
2017-05-09T21:59:33.204Z,58.20
2017-05-09T22:02:02.255Z,57.60
2017-05-09T22:04:31.288Z,58.00
2017-05-09T22:07:00.344Z,58.30
2017-05-09T22:09:29.391Z,58.80
2017-05-09T22:11:58.439Z,58.40
2017-05-09T22:14:27.512Z,56.90
2017-05-09T22:16:57.279Z,57.90
2017-05-09T22:19:26.348Z,58.50
2017-05-09T22:21:55.399Z,59.10
2017-05-09T22:24:24.450Z,57.40
2017-05-09T22:26:53.507Z,58.40
2017-05-09T22:29:23.268Z,59.30
2017-05-09T22:31:52.331Z,59.30
2017-05-09T22:34:21.374Z,58.40
2017-05-09T22:36:50.432Z,58.90
2017-05-09T22:39:19.517Z,57.60
2017-05-09T22:41:48.539Z,57.30
2017-05-09T22:44:18.425Z,59.00
2017-05-09T22:46:47.451Z,59.10
2017-05-09T22:49:16.816Z,58.80
2017-05-09T22:51:46.603Z,57.00
2017-05-09T22:54:15.632Z,58.40
2017-05-09T22:56:44.923Z,57.00
2017-05-09T22:59:13.956Z,57.60
2017-05-09T23:01:43.319Z,58.00
2017-05-09T23:04:13.083Z,56.70
2017-05-09T23:06:42.155Z,57.60
2017-05-09T23:09:11.186Z,56.80
2017-05-09T23:11:40.524Z,57.20
2017-05-09T23:14:08.856Z,56.60
2017-05-09T23:16:37.888Z,57.30
2017-05-09T23:19:08.019Z,58.00
2017-05-09T23:21:37.059Z,57.50
2017-05-09T23:24:06.115Z,56.70
2017-05-09T23:26:35.149Z,58.40
2017-05-09T23:29:04.194Z,57.40
2017-05-09T23:31:33.973Z,57.30
2017-05-09T23:34:03.037Z,58.60
2017-05-09T23:36:32.155Z,57.90
2017-05-09T23:39:01.184Z,58.40
2017-05-09T23:41:30.272Z,58.10
2017-05-09T23:43:59.300Z,58.60
2017-05-09T23:46:28.368Z,59.00
2017-05-09T23:48:58.155Z,58.10
2017-05-09T23:51:27.228Z,59.00
2017-05-09T23:53:56.266Z,58.80
2017-05-09T23:56:25.329Z,58.50
2017-05-09T23:58:54.394Z,57.60
